Time;durP1;ratioP1;P1;durP2;ratioP2;P2;SDS_P1;SDS_P2;PMS_P1;PMS_P2;Temp;Humidity;BMP_temperature;BMP_pressure;BME280_temperature;BME280_humidity;BME280_pressure;Samples;Min_cycle;Max_cycle;Signal;HPM_P1;HPM_P2
2023/04/02 00:01:44;;;;;;;4.70;1.25;;;11.90;88.20;;;;;;5046591;28;20037;-58
2023/04/02 00:04:28;;;;;;;4.78;1.00;;;11.90;88.30;;;;;;5046678;28;20059;-58
2023/04/02 00:06:56;;;;;;;2.55;1.10;;;11.90;88.90;;;;;;5046553;28;20037;-58
2023/04/02 00:09:29;;;;;;;6.10;1.30;;;11.90;88.30;;;;;;5046433;28;20088;-58
2023/04/02 00:11:55;;;;;;;5.80;1.15;;;11.90;88.40;;;;;;5029945;28;20039;-58
2023/04/02 00:14:32;;;;;;;5.68;1.23;;;11.90;89.00;;;;;;5046601;28;20053;-58
2023/04/02 00:16:58;;;;;;;4.63;1.10;;;11.90;88.40;;;;;;5046358;28;20094;-58
2023/04/02 00:19:47;;;;;;;2.25;0.93;;;11.90;88.40;;;;;;5046409;28;20033;-58
2023/04/02 00:22:19;;;;;;;3.88;1.40;;;11.90;88.40;;;;;;5046374;28;20053;-58
2023/04/02 00:24:45;;;;;;;4.50;1.35;;;11.90;88.50;;;;;;5046312;28;20124;-58
2023/04/02 00:27:11;;;;;;;2.88;0.82;;;11.80;88.40;;;;;;5046145;28;20112;-58
2023/04/02 00:29:46;;;;;;;4.95;1.13;;;11.80;88.40;;;;;;5029685;28;20184;-58
2023/04/02 00:32:20;;;;;;;3.57;0.90;;;11.80;89.10;;;;;;5046218;28;20026;-58
2023/04/02 00:34:45;;;;;;;2.15;0.70;;;11.80;88.40;;;;;;5046109;28;20059;-58
2023/04/02 00:37:17;;;;;;;7.50;1.05;;;11.80;88.40;;;;;;5045960;28;20112;-58
2023/04/02 00:39:42;;;;;;;3.97;0.90;;;11.80;88.60;;;;;;5046155;28;20029;-58
2023/04/02 00:42:10;;;;;;;1.90;1.00;;;11.80;88.50;;;;;;5047189;28;20104;-58
2023/04/02 00:44:37;;;;;;;3.92;1.15;;;11.80;88.60;;;;;;5045876;28;20036;-58
2023/04/02 00:47:19;;;;;;;3.33;1.17;;;11.80;88.60;;;;;;5029145;28;20041;-58
2023/04/02 00:49:45;;;;;;;4.93;0.90;;;11.80;88.60;;;;;;5028942;28;20363;-58
2023/04/02 00:52:19;;;;;;;5.93;1.00;;;11.70;88.60;;;;;;5044920;28;20029;-58
2023/04/02 00:54:48;;;;;;;3.50;0.73;;;11.70;88.70;;;;;;5045944;28;20025;-58
2023/04/02 00:57:22;;;;;;;3.70;1.15;;;11.70;88.70;;;;;;5045331;28;20053;-58
2023/04/02 01:00:14;;;;;;;3.05;1.10;;;11.70;88.70;;;;;;5045801;28;20030;-58
2023/04/02 01:02:40;;;;;;;2.00;0.90;;;11.70;88.70;;;;;;5029232;28;20152;-58
2023/04/02 01:05:15;;;;;;;2.38;0.88;;;11.70;88.70;;;;;;5045684;28;20028;-58
2023/04/02 01:08:05;;;;;;;3.50;1.00;;;11.70;88.80;;;;;;5046880;28;20038;-58
2023/04/02 01:11:08;;;;;;;5.88;1.00;;;11.70;88.70;;;;;;5045559;28;20029;-58
2023/04/02 01:13:47;;;;;;;2.88;1.17;;;11.70;88.80;;;;;;5045006;28;20041;-57
2023/04/02 01:16:22;;;;;;;4.72;0.80;;;11.70;89.50;;;;;;5045433;28;20038;-58
2023/04/02 01:19:07;;;;;;;5.43;0.73;;;11.60;88.80;;;;;;5046539;28;20179;-58
2023/04/02 01:21:33;;;;;;;3.55;0.80;;;11.60;88.90;;;;;;5046689;28;20477;-58
2023/04/02 01:24:06;;;;;;;4.28;0.95;;;11.60;88.90;;;;;;5046642;28;20041;-58
2023/04/02 01:26:55;;;;;;;2.60;0.80;;;11.60;88.90;;;;;;5044951;28;20108;-58
2023/04/02 01:29:49;;;;;;;3.60;1.00;;;11.60;88.90;;;;;;5045022;28;20026;-58
2023/04/02 01:32:17;;;;;;;1.33;0.80;;;11.60;89.00;;;;;;5042851;28;20038;-58
2023/04/02 01:34:45;;;;;;;5.32;1.10;;;11.60;89.00;;;;;;5044861;28;20021;-58
2023/04/02 01:37:45;;;;;;;2.70;0.90;;;11.60;89.10;;;;;;5044417;28;20033;-58
2023/04/02 01:40:29;;;;;;;2.67;1.08;;;11.60;89.10;;;;;;5029013;28;20029;-58
2023/04/02 01:43:13;;;;;;;1.83;0.80;;;11.60;89.00;;;;;;5046905;28;20037;-58
2023/04/02 01:45:39;;;;;;;1.95;0.95;;;11.60;89.00;;;;;;5046130;28;20052;-58
2023/04/02 01:48:07;;;;;;;3.00;0.70;;;11.60;89.00;;;;;;5044898;28;20467;-58
2023/04/02 01:50:35;;;;;;;2.83;1.00;;;11.50;88.90;;;;;;5027818;28;20041;-58
2023/04/02 01:53:03;;;;;;;2.15;0.80;;;11.50;89.00;;;;;;5028062;28;20079;-58
2023/04/02 01:55:51;;;;;;;1.73;0.65;;;11.50;88.90;;;;;;5044530;28;20025;-58
2023/04/02 01:58:22;;;;;;;2.13;0.80;;;11.50;88.90;;;;;;5044304;28;20033;-58
2023/04/02 02:01:12;;;;;;;3.33;0.70;;;11.50;89.00;;;;;;5044366;28;20025;-58
2023/04/02 02:03:39;;;;;;;1.17;0.47;;;11.50;89.00;;;;;;5034566;28;20069;-58
2023/04/02 02:06:04;;;;;;;2.88;0.80;;;11.50;89.10;;;;;;5044100;28;20121;-58
2023/04/02 02:08:37;;;;;;;1.48;0.43;;;11.50;89.10;;;;;;5044322;28;20063;-58
2023/04/02 02:11:03;;;;;;;0.90;0.70;;;11.50;89.10;;;;;;5044013;28;20042;-58
2023/04/02 02:13:31;;;;;;;2.88;0.93;;;11.50;89.10;;;;;;5043877;28;20037;-57
2023/04/02 02:16:00;;;;;;;2.03;0.75;;;11.50;89.10;;;;;;5045060;28;20040;-58
2023/04/02 02:18:26;;;;;;;1.08;0.63;;;11.40;89.10;;;;;;5044608;28;20041;-58
2023/04/02 02:20:52;;;;;;;1.95;0.90;;;11.40;89.10;;;;;;5045106;28;20025;-58
2023/04/02 02:23:18;;;;;;;2.28;0.70;;;11.50;89.10;;;;;;5044281;28;20037;-58
2023/04/02 02:25:43;;;;;;;3.08;0.82;;;11.40;89.00;;;;;;5043718;28;20035;-58
2023/04/02 02:28:14;;;;;;;1.02;0.65;;;11.40;89.10;;;;;;5043967;28;20030;-58
2023/04/02 02:30:42;;;;;;;4.95;0.90;;;11.40;89.10;;;;;;5043833;28;20032;-58
2023/04/02 02:33:15;;;;;;;3.28;0.88;;;11.40;89.00;;;;;;5045129;28;20029;-59
2023/04/02 02:35:52;;;;;;;2.08;0.55;;;11.40;89.10;;;;;;5044439;28;20048;-58
2023/04/02 02:38:21;;;;;;;1.50;0.65;;;11.40;89.10;;;;;;5044119;28;20034;-58
2023/04/02 02:40:46;;;;;;;0.88;0.70;;;11.40;89.10;;;;;;5045210;28;20048;-58
2023/04/02 02:43:12;;;;;;;1.58;0.73;;;11.40;89.10;;;;;;5043845;28;20041;-58
2023/04/02 02:45:38;;;;;;;2.05;0.68;;;11.40;89.10;;;;;;5043874;28;20029;-58
2023/04/02 02:48:05;;;;;;;3.30;0.80;;;11.40;89.10;;;;;;5044583;28;20022;-58
2023/04/02 02:50:30;;;;;;;0.85;0.60;;;11.40;89.00;;;;;;5043732;28;20032;-58
2023/04/02 02:52:57;;;;;;;0.77;0.60;;;11.30;89.00;;;;;;5043673;28;20490;-58
2023/04/02 02:55:28;;;;;;;3.45;0.77;;;11.30;89.00;;;;;;5026967;28;20497;-58
2023/04/02 02:58:05;;;;;;;1.60;0.73;;;11.30;89.00;;;;;;5043362;28;20128;-58
2023/04/02 03:00:32;;;;;;;3.58;0.75;;;11.30;89.10;;;;;;5043490;28;20033;-58
2023/04/02 03:02:58;;;;;;;0.85;0.68;;;11.30;89.10;;;;;;5043601;28;20448;-58
2023/04/02 03:05:24;;;;;;;1.30;0.50;;;11.30;89.10;;;;;;5043174;28;20034;-58
2023/04/02 03:07:51;;;;;;;1.35;0.77;;;11.30;89.10;;;;;;5027021;28;20091;-58
2023/04/02 03:10:58;;;;;;;1.13;0.70;;;11.30;89.10;;;;;;5043391;28;20029;-58
2023/04/02 03:13:34;;;;;;;1.95;0.50;;;11.20;89.10;;;;;;5030993;28;20040;-58
2023/04/02 03:16:10;;;;;;;2.53;0.60;;;11.20;89.10;;;;;;5050009;28;20041;-58
2023/04/02 03:19:05;;;;;;;1.40;0.80;;;11.20;89.20;;;;;;5049653;28;20088;-58
2023/04/02 03:21:50;;;;;;;2.05;0.57;;;11.20;89.20;;;;;;5049686;28;20040;-58
2023/04/02 03:24:17;;;;;;;1.25;0.57;;;11.20;89.20;;;;;;5050163;28;20084;-58
2023/04/02 03:26:45;;;;;;;1.10;0.50;;;11.20;89.20;;;;;;5051242;28;20033;-58
2023/04/02 03:29:18;;;;;;;4.13;0.60;;;11.20;89.20;;;;;;5051199;28;20482;-57
2023/04/02 03:31:58;;;;;;;1.35;0.65;;;11.20;89.20;;;;;;5049625;28;20022;-58
2023/04/02 03:34:48;;;;;;;3.65;0.90;;;11.10;89.20;;;;;;5051197;28;20481;-58
2023/04/02 03:37:21;;;;;;;1.15;0.52;;;11.10;89.30;;;;;;5049895;28;20028;-58
2023/04/02 03:39:53;;;;;;;2.03;0.63;;;11.10;89.40;;;;;;5049809;28;20037;-58
2023/04/02 03:42:49;;;;;;;1.45;0.50;;;11.10;89.40;;;;;;5049615;28;20033;-58
2023/04/02 03:45:22;;;;;;;1.58;0.75;;;11.10;89.30;;;;;;5041042;28;20046;-58
2023/04/02 03:48:09;;;;;;;2.85;0.77;;;11.10;89.40;;;;;;5049682;28;20038;-58
2023/04/02 03:50:47;;;;;;;3.22;0.80;;;11.10;89.40;;;;;;5032759;28;20048;-58
2023/04/02 03:53:12;;;;;;;1.70;0.80;;;11.10;89.40;;;;;;5033091;28;20023;-58
2023/04/02 03:55:38;;;;;;;1.10;0.57;;;11.10;89.40;;;;;;5049564;28;20055;-58
2023/04/02 03:58:45;;;;;;;1.25;0.40;;;11.10;89.40;;;;;;5049440;28;20063;-58
2023/04/02 04:01:30;;;;;;;0.68;0.52;;;11.10;89.30;;;;;;5032413;28;20049;-58
2023/04/02 04:04:00;;;;;;;3.38;0.80;;;11.10;89.40;;;;;;5032841;28;20025;-58
2023/04/02 04:06:33;;;;;;;0.70;0.45;;;11.00;89.40;;;;;;5049403;28;20041;-58
2023/04/02 04:09:09;;;;;;;1.45;0.70;;;11.00;89.40;;;;;;5049365;28;20480;-58
2023/04/02 04:11:36;;;;;;;1.13;0.40;;;11.10;89.50;;;;;;5049358;28;20029;-58
2023/04/02 04:14:31;;;;;;;1.90;0.80;;;11.00;89.40;;;;;;5049328;28;20481;-58
2023/04/02 04:17:41;;;;;;;1.30;0.57;;;11.00;89.50;;;;;;5048576;28;20471;-58
2023/04/02 04:20:16;;;;;;;3.75;0.80;;;11.00;89.50;;;;;;5011945;28;20124;-58
2023/04/02 04:22:42;;;;;;;;;;;11.00;89.40;;;;;;5012623;28;20041;-58
2023/04/02 04:25:21;;;;;;;0.55;0.40;;;11.00;89.40;;;;;;5029725;28;19970;-58
2023/04/02 04:28:09;;;;;;;0.80;0.55;;;11.00;89.30;;;;;;5029611;28;20029;-58
2023/04/02 04:30:59;;;;;;;1.42;0.50;;;11.00;89.40;;;;;;5046098;28;20121;-58
2023/04/02 04:33:38;;;;;;;2.35;0.70;;;11.00;89.30;;;;;;5046012;28;20022;-58
2023/04/02 04:36:04;;;;;;;0.80;0.38;;;11.00;89.40;;;;;;5046068;28;20067;-58
2023/04/02 04:38:33;;;;;;;0.93;0.60;;;11.00;89.40;;;;;;5045955;28;20381;-58
2023/04/02 04:41:26;;;;;;;1.33;0.70;;;11.00;89.40;;;;;;5045931;28;20043;-58
2023/04/02 04:43:58;;;;;;;3.45;0.47;;;11.00;89.30;;;;;;5047203;28;20029;-58
2023/04/02 04:46:29;;;;;;;0.70;0.40;;;11.00;89.90;;;;;;5047160;28;20129;-58
2023/04/02 04:49:08;;;;;;;1.42;0.50;;;11.00;89.30;;;;;;5047307;28;20081;-58
2023/04/02 04:51:44;;;;;;;0.77;0.40;;;11.00;89.30;;;;;;5028952;28;20424;-58
2023/04/02 04:54:11;;;;;;;1.20;0.60;;;11.00;89.30;;;;;;5045723;28;20049;-58
2023/04/02 04:56:37;;;;;;;0.65;0.38;;;11.00;89.40;;;;;;5045595;28;20049;-58
2023/04/02 04:59:31;;;;;;;1.08;0.52;;;11.00;89.40;;;;;;5045254;28;20128;-58
2023/04/02 05:02:08;;;;;;;1.40;0.40;;;11.00;89.40;;;;;;5045725;28;20044;-58
2023/04/02 05:04:36;;;;;;;1.48;0.30;;;11.00;89.40;;;;;;5045615;28;20025;-58
2023/04/02 05:07:22;;;;;;;1.38;0.50;;;10.90;89.30;;;;;;5045602;28;20088;-58
2023/04/02 05:09:52;;;;;;;;;;;10.90;89.40;;;;;;5045913;28;20087;-58
2023/04/02 05:12:34;;;;;;;1.67;0.45;;;10.90;89.40;;;;;;5078774;28;19924;-58
2023/04/02 05:15:01;;;;;;;2.00;0.70;;;10.90;89.40;;;;;;5045559;28;20125;-58
2023/04/02 05:17:27;;;;;;;1.45;0.60;;;10.90;89.30;;;;;;5045345;28;20034;-58
2023/04/02 05:20:15;;;;;;;0.40;0.40;;;10.90;89.40;;;;;;5046535;28;20028;-58
2023/04/02 05:23:02;;;;;;;2.15;0.32;;;10.90;89.40;;;;;;5045226;28;20041;-58
2023/04/02 05:25:28;;;;;;;1.15;0.43;;;10.90;89.40;;;;;;5046393;28;20042;-58
2023/04/02 05:28:31;;;;;;;0.68;0.30;;;10.90;89.30;;;;;;5044855;28;20021;-58
2023/04/02 05:31:10;;;;;;;0.47;0.47;;;10.90;89.30;;;;;;5027856;28;20045;-58
2023/04/02 05:33:36;;;;;;;1.30;0.45;;;11.00;89.30;;;;;;5044980;28;20025;-58
2023/04/02 05:36:08;;;;;;;0.80;0.30;;;10.90;89.20;;;;;;5027967;28;20108;-58
2023/04/02 05:38:35;;;;;;;2.25;0.30;;;10.90;89.20;;;;;;5044727;28;20413;-58
2023/04/02 05:41:25;;;;;;;0.70;0.50;;;11.00;89.20;;;;;;5044635;28;20052;-58
2023/04/02 05:43:57;;;;;;;1.92;0.60;;;10.90;89.20;;;;;;5044450;28;20059;-58
2023/04/02 05:46:26;;;;;;;0.60;0.40;;;10.90;89.30;;;;;;5044437;28;20116;-58
2023/04/02 05:48:54;;;;;;;2.10;0.45;;;11.00;89.50;;;;;;5044231;28;20135;-57
2023/04/02 05:51:23;;;;;;;0.30;0.30;;;10.90;89.50;;;;;;5044118;28;20468;-58
2023/04/02 05:53:52;;;;;;;0.70;0.50;;;11.00;89.80;;;;;;5027687;28;20028;-58
2023/04/02 05:56:31;;;;;;;1.15;0.60;;;11.00;89.90;;;;;;5043935;28;20033;-58
2023/04/02 05:59:18;;;;;;;0.90;0.60;;;11.00;90.00;;;;;;5028333;28;20112;-58
2023/04/02 06:02:01;;;;;;;1.88;0.80;;;11.00;90.00;;;;;;5044342;28;20033;-58
2023/04/02 06:04:44;;;;;;;2.13;0.88;;;11.00;90.00;;;;;;5045621;28;20021;-58
2023/04/02 06:07:21;;;;;;;1.67;0.80;;;11.00;90.00;;;;;;5045862;28;20042;-58
2023/04/02 06:10:06;;;;;;;1.08;0.55;;;11.10;90.00;;;;;;5027945;28;20026;-58
2023/04/02 06:12:45;;;;;;;4.40;0.90;;;11.10;90.00;;;;;;5044410;28;20045;-58
2023/04/02 06:15:15;;;;;;;2.70;1.00;;;11.10;90.00;;;;;;5028174;28;20025;-58
2023/04/02 06:18:00;;;;;;;1.33;0.75;;;11.10;90.00;;;;;;5044253;28;20034;-58
2023/04/02 06:20:26;;;;;;;3.55;0.73;;;11.10;89.90;;;;;;5043900;28;20026;-58
2023/04/02 06:23:08;;;;;;;6.15;0.80;;;11.20;89.70;;;;;;5044336;28;20036;-58
2023/04/02 06:25:37;;;;;;;2.20;1.25;;;11.20;89.60;;;;;;5044101;28;20033;-58
2023/04/02 06:28:05;;;;;;;5.40;1.00;;;11.20;89.60;;;;;;5044243;28;20480;-58
2023/04/02 06:30:31;;;;;;;1.60;0.80;;;11.20;89.60;;;;;;5044240;28;20030;-58
2023/04/02 06:32:57;;;;;;;3.88;0.93;;;11.20;89.50;;;;;;5044077;28;20021;-57
2023/04/02 06:35:23;;;;;;;5.70;1.10;;;11.20;89.60;;;;;;5044059;28;20033;-58
2023/04/02 06:37:50;;;;;;;5.65;1.00;;;11.20;89.60;;;;;;5027311;28;20496;-58
2023/04/02 06:40:38;;;;;;;2.00;0.82;;;11.20;89.50;;;;;;5043722;28;20056;-58
2023/04/02 06:43:32;;;;;;;3.00;1.15;;;11.20;89.60;;;;;;5043604;28;20032;-58
2023/04/02 06:45:59;;;;;;;5.78;1.30;;;11.20;89.50;;;;;;5029272;28;20045;-58
2023/04/02 06:48:25;;;;;;;3.50;1.38;;;11.20;89.50;;;;;;5042873;28;20037;-58
2023/04/02 06:50:55;;;;;;;7.72;1.73;;;11.20;89.50;;;;;;5043138;28;20048;-58
2023/04/02 06:53:45;;;;;;;16.67;1.90;;;11.30;89.50;;;;;;5043791;28;20030;-58
2023/04/02 06:56:22;;;;;;;15.15;2.05;;;11.20;89.30;;;;;;5045038;28;20155;-58
2023/04/02 06:58:48;;;;;;;8.90;1.70;;;11.30;89.50;;;;;;5043419;28;20025;-58
2023/04/02 07:01:19;;;;;;;6.85;1.42;;;11.30;89.40;;;;;;5043409;28;20111;-57
2023/04/02 07:03:44;;;;;;;9.23;2.17;;;11.30;89.40;;;;;;5043505;28;20033;-58
2023/04/02 07:06:17;;;;;;;15.07;2.17;;;11.30;89.30;;;;;;5026834;28;20040;-58
2023/04/02 07:08:43;;;;;;;15.23;2.40;;;11.30;89.10;;;;;;5043411;28;20052;-58
2023/04/02 07:11:16;;;;;;;10.80;2.03;;;11.30;89.10;;;;;;5026585;28;20454;-58
2023/04/02 07:13:42;;;;;;;10.02;2.10;;;11.30;89.10;;;;;;5043539;28;20041;-57
2023/04/02 07:16:16;;;;;;;9.15;2.50;;;11.40;89.00;;;;;;5043566;28;20040;-58
2023/04/02 07:18:42;;;;;;;11.93;2.20;;;11.40;89.00;;;;;;5043579;28;20437;-58
2023/04/02 07:21:07;;;;;;;15.48;2.35;;;11.40;89.00;;;;;;5043474;28;20037;-58
2023/04/02 07:23:33;;;;;;;14.25;3.03;;;11.40;89.00;;;;;;5043446;28;20029;-58
2023/04/02 07:26:00;;;;;;;22.13;3.00;;;11.40;88.90;;;;;;5044809;28;20085;-58
2023/04/02 07:28:26;;;;;;;19.02;2.55;;;11.50;88.90;;;;;;5043406;28;20429;-57
2023/04/02 07:30:52;;;;;;;16.65;3.00;;;11.50;88.80;;;;;;5043424;28;20030;-58
2023/04/02 07:33:19;;;;;;;15.25;2.45;;;11.50;88.80;;;;;;5043416;28;20026;-58
2023/04/02 07:35:45;;;;;;;14.75;3.00;;;11.50;88.80;;;;;;5043191;28;20065;-58
2023/04/02 07:38:11;;;;;;;23.05;3.58;;;11.50;88.70;;;;;;5042980;28;20060;-58
2023/04/02 07:40:36;;;;;;;19.60;3.58;;;11.50;88.70;;;;;;5044302;28;20037;-58
2023/04/02 07:43:03;;;;;;;16.33;2.88;;;11.50;88.60;;;;;;5044291;28;20052;-58
2023/04/02 07:45:28;;;;;;;29.95;4.05;;;11.60;88.50;;;;;;5042895;28;20030;-58
2023/04/02 07:47:54;;;;;;;20.88;3.00;;;11.60;88.50;;;;;;5042968;28;20041;-58
2023/04/02 07:50:19;;;;;;;24.85;4.07;;;11.60;88.50;;;;;;5026223;28;20025;-58
2023/04/02 07:52:45;;;;;;;32.05;3.28;;;11.60;88.30;;;;;;5044019;28;20098;-58
2023/04/02 07:55:11;;;;;;;21.98;3.20;;;11.70;88.30;;;;;;5026365;28;20048;-58
2023/04/02 07:57:53;;;;;;;18.67;3.55;;;11.70;88.30;;;;;;5042914;28;20041;-58
2023/04/02 08:00:19;;;;;;;24.27;3.45;;;11.70;88.10;;;;;;5028116;28;20025;-58
2023/04/02 08:02:45;;;;;;;27.35;3.15;;;11.70;88.10;;;;;;5047946;28;20021;-58
2023/04/02 08:05:10;;;;;;;27.92;3.58;;;11.80;88.70;;;;;;5046275;28;20545;-58
2023/04/02 08:07:37;;;;;;;21.42;3.42;;;11.80;88.10;;;;;;5046197;28;20029;-58
2023/04/02 08:10:04;;;;;;;36.90;4.38;;;11.80;88.00;;;;;;5046234;28;20025;-58
2023/04/02 08:12:29;;;;;;;26.38;4.10;;;11.80;87.90;;;;;;5046266;28;20040;-58
2023/04/02 08:14:55;;;;;;;31.30;4.32;;;11.80;87.80;;;;;;5047711;28;20070;-58
2023/04/02 08:17:20;;;;;;;23.67;3.60;;;11.90;87.80;;;;;;5046389;28;20057;-58
2023/04/02 08:19:46;;;;;;;24.52;3.72;;;11.90;87.80;;;;;;5046589;28;20025;-58
2023/04/02 08:22:12;;;;;;;21.52;3.88;;;11.90;87.80;;;;;;5046111;28;20029;-57
2023/04/02 08:24:37;;;;;;;27.05;5.28;;;11.90;87.80;;;;;;5046178;28;20457;-58
2023/04/02 08:27:03;;;;;;;52.83;6.88;;;12.00;87.90;;;;;;5046363;28;20045;-58
2023/04/02 08:29:31;;;;;;;69.43;10.25;;;12.00;87.80;;;;;;5048138;28;20032;-58
2023/04/02 08:32:00;;;;;;;46.22;7.18;;;12.00;87.70;;;;;;5047749;28;20062;-58
2023/04/02 08:34:25;;;;;;;52.83;6.22;;;12.00;87.80;;;;;;5047247;28;20032;-58
2023/04/02 08:36:54;;;;;;;44.35;5.70;;;12.00;87.80;;;;;;5029006;28;20037;-58
2023/04/02 08:39:20;;;;;;;36.17;5.38;;;12.00;87.80;;;;;;5045820;28;20029;-58
2023/04/02 08:41:55;;;;;;;41.13;4.85;;;12.10;87.70;;;;;;5045570;28;20030;-58
2023/04/02 08:44:50;;;;;;;35.42;5.05;;;12.10;87.50;;;;;;5029115;28;20037;-58
2023/04/02 08:47:16;;;;;;;38.95;4.30;;;12.00;87.30;;;;;;5045431;28;20045;-58
2023/04/02 08:49:43;;;;;;;32.03;3.65;;;12.00;87.20;;;;;;5045653;28;20048;-58
2023/04/02 08:52:23;;;;;;;26.02;3.90;;;12.00;87.20;;;;;;5045058;28;20041;-58
2023/04/02 08:54:49;;;;;;;40.13;5.13;;;12.00;87.20;;;;;;5045691;28;20044;-57
2023/04/02 08:57:22;;;;;;;35.47;4.03;;;12.10;87.10;;;;;;5028797;28;20084;-58
2023/04/02 08:59:47;;;;;;;32.80;4.15;;;12.10;87.30;;;;;;5045257;28;20030;-58
2023/04/02 09:02:36;;;;;;;49.67;5.35;;;12.10;86.90;;;;;;5028409;28;20037;-58
2023/04/02 09:05:03;;;;;;;53.80;5.40;;;12.10;86.80;;;;;;5028124;28;20022;-58
2023/04/02 09:07:31;;;;;;;80.95;9.45;;;12.10;86.80;;;;;;5043472;28;20083;-58
2023/04/02 09:09:57;;;;;;;57.95;7.00;;;12.10;87.00;;;;;;5029528;28;20025;-58
2023/04/02 09:12:30;;;;;;;56.35;6.22;;;12.20;86.90;;;;;;5043710;28;20087;-58
2023/04/02 09:15:10;;;;;;;76.40;8.02;;;12.20;86.60;;;;;;5042031;28;20358;-58
2023/04/02 09:17:36;;;;;;;67.82;6.95;;;12.20;86.80;;;;;;5048725;28;20048;-58
2023/04/02 09:20:18;;;;;;;54.17;5.35;;;12.20;86.60;;;;;;5064862;28;20096;-58
2023/04/02 09:22:45;;;;;;;63.10;6.53;;;12.20;86.50;;;;;;5053913;28;20037;-58
2023/04/02 09:25:20;;;;;;;100.88;11.00;;;12.30;86.50;;;;;;5025968;28;20049;-58
2023/04/02 09:27:49;;;;;;;56.22;6.90;;;12.30;86.70;;;;;;5045080;28;20063;-58
2023/04/02 09:30:41;;;;;;;55.28;6.75;;;12.30;86.60;;;;;;5044223;28;20057;-58
2023/04/02 09:33:07;;;;;;;69.53;7.60;;;12.30;86.50;;;;;;5044246;28;20022;-58
2023/04/02 09:35:48;;;;;;;63.80;8.27;;;12.30;86.60;;;;;;5043251;28;20053;-58
2023/04/02 09:38:22;;;;;;;65.32;8.02;;;12.40;86.70;;;;;;5045136;28;20044;-58
2023/04/02 09:40:55;;;;;;;67.55;8.27;;;12.40;86.70;;;;;;5027079;28;20469;-58
2023/04/02 09:43:28;;;;;;;105.03;10.00;;;12.40;86.80;;;;;;5044212;28;20041;-58
2023/04/02 09:45:58;;;;;;;139.75;12.32;;;12.50;87.00;;;;;;5039254;28;20089;-58
2023/04/02 09:48:32;;;;;;;71.88;9.43;;;12.50;87.10;;;;;;5075042;28;20083;-58
2023/04/02 09:51:11;;;;;;;105.18;11.95;;;12.50;87.30;;;;;;5043805;28;20026;-58
2023/04/02 09:53:38;;;;;;;107.20;10.27;;;12.60;87.30;;;;;;5038252;28;20026;-58
2023/04/02 09:56:08;;;;;;;84.07;8.60;;;12.60;87.20;;;;;;5042522;28;20041;-58
2023/04/02 09:58:34;;;;;;;68.82;8.55;;;12.60;86.90;;;;;;5038031;28;20121;-58
2023/04/02 10:01:00;;;;;;;121.20;12.88;;;12.70;87.00;;;;;;5043109;28;20033;-58
2023/04/02 10:03:27;;;;;;;136.52;14.98;;;12.70;87.60;;;;;;5039274;28;20034;-58
2023/04/02 10:06:12;;;;;;;137.10;13.95;;;12.70;87.60;;;;;;5060118;28;20034;-58
2023/04/02 10:08:42;;;;;;;98.27;11.90;;;12.80;87.40;;;;;;5040890;28;20021;-58
2023/04/02 10:11:22;;;;;;;124.60;12.05;;;12.80;87.20;;;;;;5057991;28;20108;-58
2023/04/02 10:13:52;;;;;;;133.40;12.32;;;12.90;87.10;;;;;;5050316;28;20041;-58
2023/04/02 10:16:20;;;;;;;141.48;13.75;;;12.90;87.10;;;;;;5041699;28;20037;-58
2023/04/02 10:19:03;;;;;;;161.55;15.48;;;12.90;86.90;;;;;;5044801;28;20068;-58
2023/04/02 10:21:32;;;;;;;92.63;9.95;;;13.00;86.80;;;;;;5074078;28;20108;-58
2023/04/02 10:24:01;;;;;;;101.53;10.85;;;13.00;86.10;;;;;;5030541;28;20082;-58
2023/04/02 10:26:45;;;;;;;97.82;10.43;;;13.10;86.00;;;;;;5040112;28;20038;-58
2023/04/02 10:29:26;;;;;;;82.57;10.02;;;13.10;85.20;;;;;;5039673;28;20036;-58
2023/04/02 10:32:01;;;;;;;82.00;9.18;;;13.10;85.00;;;;;;5044108;28;20114;-58
2023/04/02 10:34:42;;;;;;;101.82;11.30;;;13.10;84.50;;;;;;5040677;28;20030;-58
2023/04/02 10:37:42;;;;;;;88.10;9.45;;;13.10;84.10;;;;;;5042886;28;20041;-58
2023/04/02 10:40:10;;;;;;;88.90;8.90;;;13.10;83.60;;;;;;5039430;28;20029;-58
2023/04/02 10:42:49;;;;;;;137.50;14.02;;;13.20;83.50;;;;;;5023756;28;20072;-58
2023/04/02 10:45:33;;;;;;;114.35;12.77;;;13.20;83.60;;;;;;5058174;28;20045;-58
2023/04/02 10:48:18;;;;;;;87.25;9.52;;;13.30;83.70;;;;;;5036920;28;20053;-58
2023/04/02 10:50:49;;;;;;;110.40;10.05;;;13.30;82.50;;;;;;5034296;28;20045;-58
2023/04/02 10:53:16;;;;;;;104.82;11.40;;;13.40;82.10;;;;;;5043181;28;20025;-58
2023/04/02 10:55:57;;;;;;;108.43;12.15;;;13.40;81.80;;;;;;5041098;28;20036;-58
2023/04/02 10:58:27;;;;;;;117.53;12.13;;;13.40;82.50;;;;;;5039516;28;20108;-58
2023/04/02 11:00:58;;;;;;;110.43;9.82;;;13.40;82.10;;;;;;5039524;28;20042;-58
2023/04/02 11:03:48;;;;;;;104.97;9.57;;;13.40;82.00;;;;;;5037339;28;20033;-58
2023/04/02 11:06:22;;;;;;;110.90;13.25;;;13.50;81.00;;;;;;5017478;28;20045;-58
2023/04/02 11:08:52;;;;;;;116.63;12.93;;;13.60;81.30;;;;;;5042475;28;20442;-58
2023/04/02 11:11:26;;;;;;;149.25;15.05;;;13.60;81.40;;;;;;5040864;28;20083;-58
2023/04/02 11:14:01;;;;;;;146.07;16.42;;;13.60;82.00;;;;;;5022896;28;20025;-58
2023/04/02 11:16:27;;;;;;;124.30;13.02;;;13.70;81.60;;;;;;5055414;28;20163;-58
2023/04/02 11:19:16;;;;;;;89.43;11.48;;;13.70;81.40;;;;;;5034916;28;20033;-58
2023/04/02 11:21:54;;;;;;;111.60;11.32;;;13.80;81.10;;;;;;5035241;28;20088;-58
2023/04/02 11:24:30;;;;;;;93.78;10.95;;;13.90;81.00;;;;;;5042593;28;20021;-58
2023/04/02 11:27:11;;;;;;;114.82;11.45;;;13.90;81.30;;;;;;5038258;28;20091;-58
2023/04/02 11:29:41;;;;;;;114.75;13.75;;;14.00;81.70;;;;;;5040643;28;20025;-58
2023/04/02 11:32:26;;;;;;;119.07;12.40;;;14.00;81.80;;;;;;5044310;28;20120;-57
2023/04/02 11:34:52;;;;;;;118.50;14.23;;;14.10;81.80;;;;;;5048904;28;20024;-58
2023/04/02 11:37:30;;;;;;;96.57;11.60;;;14.10;81.40;;;;;;5047997;28;20033;-58
2023/04/02 11:39:58;;;;;;;121.13;13.27;;;14.20;81.00;;;;;;5043146;28;20073;-58
2023/04/02 11:42:26;;;;;;;131.00;13.50;;;14.20;80.90;;;;;;5066035;28;20045;-58
2023/04/02 11:44:53;;;;;;;121.68;10.68;;;14.30;81.00;;;;;;5047122;28;20020;-58
2023/04/02 11:47:22;;;;;;;123.80;14.00;;;14.30;80.70;;;;;;5062372;28;20033;-58
2023/04/02 11:49:55;;;;;;;119.93;12.63;;;14.40;80.70;;;;;;5062048;28;20029;-58
2023/04/02 11:52:32;;;;;;;101.38;10.98;;;14.40;80.70;;;;;;5040503;28;20033;-58
2023/04/02 11:55:24;;;;;;;117.60;12.73;;;14.40;80.90;;;;;;5058835;28;20034;-58
2023/04/02 11:58:19;;;;;;;108.28;11.48;;;14.40;79.70;;;;;;5062525;28;20087;-58
2023/04/02 12:01:21;;;;;;;107.90;10.70;;;14.40;79.80;;;;;;5045680;28;20148;-58
2023/04/02 12:04:08;;;;;;;114.70;10.07;;;14.50;79.60;;;;;;5039145;28;20068;-58
2023/04/02 12:06:45;;;;;;;97.57;11.27;;;14.50;79.60;;;;;;5072170;28;20137;-58
2023/04/02 12:09:23;;;;;;;111.80;10.65;;;14.60;79.70;;;;;;5043532;28;20036;-58
2023/04/02 12:11:55;;;;;;;88.28;9.98;;;14.60;79.70;;;;;;5046819;28;20054;-58
2023/04/02 12:14:44;;;;;;;91.25;9.75;;;14.60;79.80;;;;;;5026210;28;20021;-58
2023/04/02 12:17:17;;;;;;;92.03;8.48;;;14.60;79.80;;;;;;5058357;28;20038;-58
2023/04/02 12:19:51;;;;;;;90.47;9.32;;;14.60;79.80;;;;;;5044331;28;20396;-58
2023/04/02 12:22:22;;;;;;;84.63;9.18;;;14.70;79.90;;;;;;5042855;28;20048;-58
2023/04/02 12:24:48;;;;;;;96.38;10.00;;;14.60;80.10;;;;;;5047471;28;20037;-58
2023/04/02 12:27:21;;;;;;;106.95;11.30;;;14.70;80.20;;;;;;5057102;28;20053;-58
2023/04/02 12:29:47;;;;;;;141.95;13.93;;;14.70;80.40;;;;;;5047493;28;20184;-58
2023/04/02 12:32:24;;;;;;;160.27;15.68;;;14.70;80.60;;;;;;5045455;28;20125;-58
2023/04/02 12:34:51;;;;;;;140.75;15.85;;;14.70;80.70;;;;;;5042943;28;20055;-58
2023/04/02 12:37:22;;;;;;;150.70;14.45;;;14.80;80.80;;;;;;5059588;28;20052;-58
2023/04/02 12:40:00;;;;;;;158.38;16.15;;;14.80;80.60;;;;;;5025287;28;20039;-58
2023/04/02 12:42:26;;;;;;;137.30;13.88;;;14.80;80.70;;;;;;5057903;28;20430;-58
2023/04/02 12:44:52;;;;;;;142.80;14.32;;;14.90;80.80;;;;;;5075677;28;20035;-58
2023/04/02 12:47:18;;;;;;;233.15;19.67;;;14.90;80.30;;;;;;5044665;28;20065;-58
2023/04/02 12:49:43;;;;;;;195.98;20.05;;;14.90;80.60;;;;;;5044365;28;20044;-58
2023/04/02 12:52:14;;;;;;;215.00;20.90;;;15.00;81.40;;;;;;5078908;28;20164;-58
2023/04/02 12:54:54;;;;;;;194.20;19.15;;;15.00;80.60;;;;;;5043377;28;20105;-58
2023/04/02 12:57:25;;;;;;;171.32;18.40;;;15.10;80.60;;;;;;5040885;28;20044;-56
2023/04/02 12:59:52;;;;;;;196.55;18.67;;;15.10;80.30;;;;;;5049052;28;20029;-56
2023/04/02 13:02:19;;;;;;;215.80;20.88;;;15.10;80.10;;;;;;5084148;28;20042;-56
2023/04/02 13:04:55;;;;;;;200.25;21.13;;;15.20;80.40;;;;;;5075253;28;20075;-56
2023/04/02 13:07:24;;;;;;;195.63;22.35;;;15.20;80.60;;;;;;5070778;28;20048;-56
2023/04/02 13:09:57;;;;;;;222.90;21.35;;;15.20;80.60;;;;;;5022705;28;20044;-56
2023/04/02 13:12:26;;;;;;;172.02;19.33;;;15.20;80.50;;;;;;5042475;28;20107;-56